createdAt,value
2023-03-27T00:05:19.569Z,2.7
2023-03-27T00:15:22.108Z,2.5
2023-03-27T00:25:24.401Z,2.4
2023-03-27T00:35:26.153Z,2.2
2023-03-27T00:45:27.931Z,2
2023-03-27T00:55:29.834Z,1.9
2023-03-27T01:05:31.862Z,1.8
2023-03-27T01:15:33.791Z,1.8
2023-03-27T01:25:35.966Z,1.7
2023-03-27T01:35:38.541Z,1.7
2023-03-27T01:45:40.352Z,1.7
2023-03-27T01:55:42.438Z,1.6
2023-03-27T02:05:45.004Z,1.5
2023-03-27T02:15:47.371Z,1.5
2023-03-27T02:25:49.238Z,1.4
2023-03-27T02:45:53.498Z,1.3
2023-03-27T02:55:55.446Z,1.2
2023-03-27T03:05:58.003Z,1.2
2023-03-27T03:15:59.934Z,1.2
2023-03-27T03:36:04.885Z,1.1
2023-03-27T03:46:06.968Z,1
2023-03-27T03:56:08.963Z,0.9
2023-03-27T04:06:11.673Z,0.9
2023-03-27T04:26:16.481Z,0.8
2023-03-27T04:36:18.869Z,0.8
2023-03-27T04:46:21.330Z,0.9
2023-03-27T04:56:23.770Z,1
2023-03-27T05:16:27.479Z,1.1
2023-03-27T05:36:31.848Z,1.1
2023-03-27T06:16:41.537Z,1.7
2023-03-27T07:26:57.873Z,3
2023-03-27T07:37:00.051Z,3.3
2023-03-27T08:07:06.922Z,4
2023-03-27T08:27:11.486Z,4.5
2023-03-27T08:57:17.072Z,5.8
2023-03-27T09:17:21.420Z,5.7
2023-03-27T09:27:24.041Z,5.6
2023-03-27T09:37:26.409Z,6
2023-03-27T09:47:28.888Z,5.7
2023-03-27T11:47:55.299Z,4.7
2023-03-27T11:57:57.243Z,5.5
2023-03-27T12:07:59.280Z,6.2
2023-03-27T12:18:02.006Z,6.8
2023-03-27T12:28:04.577Z,7.5
2023-03-27T12:38:06.897Z,6.4
2023-03-27T12:58:10.501Z,5.8
2023-03-27T13:18:14.523Z,6.8
2023-03-27T13:28:16.230Z,7.3
2023-03-27T13:38:18.230Z,7.4
2023-03-27T13:48:20.833Z,7.5
2023-03-27T14:08:25.510Z,4.4
2023-03-27T14:18:28.040Z,5.5
2023-03-27T14:28:29.846Z,6.4
2023-03-27T14:38:31.629Z,6.3
2023-03-27T14:48:33.629Z,6.1
2023-03-27T14:58:35.679Z,6.5
2023-03-27T15:08:38.069Z,7.1
2023-03-27T15:18:39.812Z,7.9
2023-03-27T15:28:41.591Z,7.9
2023-03-27T15:38:43.619Z,8
2023-03-27T15:48:45.713Z,8.4
2023-03-27T15:58:47.696Z,8
2023-03-27T16:08:49.511Z,8.1
2023-03-27T16:18:51.274Z,7
2023-03-27T16:28:52.972Z,7.2
2023-03-27T16:38:55.366Z,6.9
2023-03-27T16:48:57.645Z,6.5
2023-03-27T16:58:59.340Z,6.2
2023-03-27T17:09:01.111Z,6
2023-03-27T17:19:03.386Z,5.6
2023-03-27T17:29:15.853Z,5.5
2023-03-27T17:39:18.153Z,5.3
2023-03-27T17:49:19.949Z,5.3
2023-03-27T17:59:22.553Z,5
2023-03-27T18:09:24.335Z,4.9
2023-03-27T18:19:26.644Z,4.8
2023-03-27T18:29:28.582Z,4.6
2023-03-27T18:39:30.773Z,4.5
2023-03-27T18:49:33.084Z,4.2
2023-03-27T18:59:35.124Z,4.2
2023-03-27T19:09:41.206Z,4.1
2023-03-27T19:19:39.329Z,3.9
2023-03-27T19:29:41.086Z,3.8
2023-03-27T19:39:43.259Z,3.7
2023-03-27T19:49:44.946Z,3.5
2023-03-27T20:09:49.569Z,3.4
2023-03-27T20:39:55.899Z,3.1
2023-03-27T20:49:57.928Z,3
2023-03-27T21:00:00.601Z,2.9
2023-03-27T21:10:03.260Z,2.8
2023-03-27T21:20:05.217Z,2.7
2023-03-27T21:30:07.435Z,2.7
2023-03-27T21:40:09.325Z,2.6
2023-03-27T21:50:11.612Z,2.7
2023-03-27T22:00:13.328Z,2.6
